RJOP(METAR)
05/28 02:00
METAR RJOP 271700Z 00000KT 9999 FEW030 BKN150 BKN200 20/16 Q1011 RMK
1CU030 5AC150 A2987=
戻る
トップページへ戻る
IMOC Co,.Ltd.